Time;durP1;ratioP1;P1;durP2;ratioP2;P2;SDS_P1;SDS_P2;PMS_P1;PMS_P2;Temp;Humidity;BMP_temperature;BMP_pressure;BME280_temperature;BME280_humidity;BME280_pressure;Samples;Min_cycle;Max_cycle;Signal;HPM_P1;HPM_P2
2021/08/08 00:00:59;;;;;;;36.55;8.18;;;14.40;99.90;;;;;;5053921;28;20052;-78
2021/08/08 00:03:26;;;;;;;29.98;8.18;;;14.50;99.90;;;;;;5053886;28;20021;-79
2021/08/08 00:05:52;;;;;;;43.05;14.18;;;14.50;99.90;;;;;;5053370;28;20025;-77
2021/08/08 00:08:18;;;;;;;27.40;7.90;;;14.50;99.90;;;;;;5053814;28;20025;-78
2021/08/08 00:10:45;;;;;;;32.35;7.97;;;14.60;99.90;;;;;;5053769;28;20025;-77
2021/08/08 00:13:10;;;;;;;;;;;14.50;99.90;;;;;;5036226;28;20020;-78
2021/08/08 00:15:38;;;;;;;24.83;7.47;;;14.60;99.90;;;;;;5053769;28;19905;-79
2021/08/08 00:18:05;;;;;;;31.52;8.23;;;14.50;99.90;;;;;;5053792;28;20036;-78
2021/08/08 00:20:31;;;;;;;24.77;7.40;;;14.50;99.90;;;;;;5035699;28;20033;-78
2021/08/08 00:22:57;;;;;;;27.65;7.75;;;14.50;99.90;;;;;;5053758;28;20059;-78
2021/08/08 00:25:23;;;;;;;35.17;8.63;;;14.70;99.90;;;;;;5053402;28;20020;-78
2021/08/08 00:27:49;;;;;;;26.90;7.38;;;14.60;99.90;;;;;;5053585;28;20028;-78
2021/08/08 00:30:14;;;;;;;30.65;8.38;;;14.80;99.90;;;;;;5053579;28;20389;-78
2021/08/08 00:32:41;;;;;;;35.05;12.02;;;14.80;99.90;;;;;;5053464;28;20061;-78
2021/08/08 00:35:07;;;;;;;;;;;14.60;99.90;;;;;;5053744;28;20531;-77
2021/08/08 00:37:33;;;;;;;34.72;8.35;;;14.70;99.90;;;;;;5053274;28;19911;-78
2021/08/08 00:39:58;;;;;;;31.17;9.60;;;14.60;99.90;;;;;;5053292;28;20037;-76
2021/08/08 00:42:24;;;;;;;32.85;7.75;;;14.60;99.90;;;;;;5053319;28;20032;-77
2021/08/08 00:44:50;;;;;;;28.92;7.32;;;14.60;99.90;;;;;;5052644;28;20386;-77
2021/08/08 00:47:16;;;;;;;32.60;8.77;;;14.70;99.90;;;;;;5053635;28;20021;-78
2021/08/08 00:49:41;;;;;;;30.13;7.45;;;14.70;99.90;;;;;;5053181;28;20374;-79
2021/08/08 00:52:07;;;;;;;29.10;8.05;;;14.70;99.90;;;;;;5053107;28;20389;-78
2021/08/08 00:54:33;;;;;;;33.40;7.93;;;14.70;99.90;;;;;;5053167;28;20132;-77
2021/08/08 00:56:59;;;;;;;30.50;8.75;;;14.70;99.90;;;;;;5053086;28;20025;-78
2021/08/08 00:59:25;;;;;;;36.15;9.05;;;14.60;99.90;;;;;;5053085;28;20051;-78
2021/08/08 01:01:53;;;;;;;31.10;7.63;;;14.60;99.90;;;;;;5053061;28;20504;-77
2021/08/08 01:04:27;;;;;;;29.13;8.00;;;14.60;99.90;;;;;;5053014;28;20052;-78
2021/08/08 01:07:04;;;;;;;35.75;11.93;;;14.70;99.90;;;;;;5053196;28;20095;-78
2021/08/08 01:09:35;;;;;;;32.90;8.25;;;14.50;99.90;;;;;;5053167;28;20029;-77
2021/08/08 01:12:01;;;;;;;35.25;13.73;;;14.60;99.90;;;;;;5053000;28;20045;-77
2021/08/08 01:14:30;;;;;;;33.13;8.15;;;14.60;99.90;;;;;;5053092;28;20029;-78
2021/08/08 01:16:56;;;;;;;33.42;8.05;;;14.60;99.90;;;;;;5052918;28;20018;-78
2021/08/08 01:19:23;;;;;;;;;;;14.50;99.90;;;;;;5057597;28;20086;-78
2021/08/08 01:21:50;;;;;;;32.13;8.20;;;14.50;99.90;;;;;;5057313;28;19908;-77
2021/08/08 01:24:16;;;;;;;35.03;12.50;;;14.50;99.90;;;;;;5056816;28;20021;-77
2021/08/08 01:26:44;;;;;;;59.80;23.50;;;14.50;99.90;;;;;;5056909;28;20111;-79
2021/08/08 01:29:10;;;;;;;27.73;8.30;;;14.50;99.90;;;;;;5056769;28;20029;-77
2021/08/08 01:31:35;;;;;;;;;;;14.50;99.90;;;;;;5057367;28;20021;-79
2021/08/08 01:34:01;;;;;;;30.00;8.00;;;14.60;99.90;;;;;;5056824;28;19954;-78
2021/08/08 01:36:27;;;;;;;25.08;7.57;;;14.50;99.90;;;;;;5056678;28;20025;-76
2021/08/08 01:38:53;;;;;;;32.78;8.10;;;14.50;99.90;;;;;;5056603;28;20028;-77
2021/08/08 01:41:19;;;;;;;34.53;9.98;;;14.50;99.90;;;;;;5038766;28;20057;-78
2021/08/08 01:43:49;;;;;;;31.65;8.75;;;14.40;99.90;;;;;;5047214;28;20056;-79
2021/08/08 01:46:17;;;;;;;31.60;8.27;;;14.40;99.90;;;;;;5076595;28;20100;-79
2021/08/08 01:48:45;;;;;;;34.47;8.50;;;14.40;99.90;;;;;;5076494;28;20027;-78
2021/08/08 01:51:12;;;;;;;28.23;8.00;;;14.30;99.90;;;;;;5076417;28;20043;-78
2021/08/08 01:53:40;;;;;;;33.85;8.82;;;14.40;99.90;;;;;;5076317;28;20025;-77
2021/08/08 01:56:06;;;;;;;29.55;7.85;;;14.40;99.90;;;;;;5076314;28;20017;-76
2021/08/08 01:58:35;;;;;;;26.65;8.48;;;14.40;99.90;;;;;;5076286;28;20453;-78
2021/08/08 02:01:00;;;;;;;27.25;7.90;;;14.40;99.90;;;;;;5076516;28;20083;-77
2021/08/08 02:03:37;;;;;;;26.95;8.05;;;14.40;99.90;;;;;;5076243;28;20536;-76
2021/08/08 02:06:04;;;;;;;30.65;8.05;;;14.30;99.90;;;;;;5075985;28;20020;-78
2021/08/08 02:08:30;;;;;;;29.33;7.82;;;14.20;99.90;;;;;;5076049;28;20028;-79
2021/08/08 02:10:56;;;;;;;35.17;10.27;;;14.20;99.90;;;;;;5076121;28;20508;-77
2021/08/08 02:13:22;;;;;;;;;;;14.20;99.90;;;;;;5075155;28;20036;-78
2021/08/08 02:15:47;;;;;;;25.77;7.28;;;14.20;99.90;;;;;;5075980;28;19904;-77
2021/08/08 02:18:13;;;;;;;39.22;8.82;;;14.20;99.90;;;;;;5075953;28;20020;-78
2021/08/08 02:20:39;;;;;;;33.97;9.77;;;14.10;99.90;;;;;;5075897;28;20115;-78
2021/08/08 02:23:05;;;;;;;37.35;9.88;;;14.10;99.90;;;;;;5076094;28;20382;-79
2021/08/08 02:25:31;;;;;;;32.08;8.77;;;14.10;99.90;;;;;;5075717;28;20040;-79
2021/08/08 02:27:56;;;;;;;;;;;14.20;99.90;;;;;;5076196;28;20021;-76
2021/08/08 02:30:23;;;;;;;27.83;8.57;;;14.20;99.90;;;;;;5074859;28;19950;-77
2021/08/08 02:32:48;;;;;;;;;;;14.20;99.90;;;;;;5076108;28;20147;-77
2021/08/08 02:35:14;;;;;;;29.60;9.50;;;14.10;99.90;;;;;;5075750;28;19977;-78
2021/08/08 02:37:40;;;;;;;40.95;11.38;;;13.90;99.90;;;;;;5075618;28;20092;-78
2021/08/08 02:40:06;;;;;;;37.13;9.63;;;14.00;99.90;;;;;;5075516;28;20428;-77
2021/08/08 02:42:32;;;;;;;31.88;9.45;;;14.00;99.90;;;;;;5075456;28;20070;-76
2021/08/08 02:44:59;;;;;;;37.38;10.00;;;13.90;99.90;;;;;;5073842;28;20048;-77
2021/08/08 02:47:27;;;;;;;28.83;9.38;;;14.00;99.90;;;;;;5075344;28;20035;-79
2021/08/08 02:49:53;;;;;;;34.67;9.07;;;14.10;99.90;;;;;;5075328;28;20020;-76
2021/08/08 02:52:19;;;;;;;30.55;10.60;;;14.00;99.90;;;;;;5075764;28;20017;-78
2021/08/08 02:54:45;;;;;;;;;;;14.00;99.90;;;;;;5076050;28;20035;-78
2021/08/08 02:57:10;;;;;;;32.38;9.07;;;14.00;99.90;;;;;;5075181;28;19904;-78
2021/08/08 02:59:36;;;;;;;36.55;12.98;;;13.90;99.90;;;;;;5075139;28;20095;-78
2021/08/08 03:02:03;;;;;;;31.38;9.80;;;13.90;99.90;;;;;;5075155;28;20392;-77
2021/08/08 03:04:29;;;;;;;32.40;9.68;;;14.00;99.90;;;;;;5075135;28;20023;-79
2021/08/08 03:06:54;;;;;;;;;;;14.00;99.90;;;;;;5075716;28;20082;-78
2021/08/08 03:09:20;;;;;;;29.67;8.85;;;14.00;99.90;;;;;;5075167;28;19991;-77
2021/08/08 03:11:46;;;;;;;29.55;8.40;;;13.90;99.90;;;;;;5074931;28;20013;-77
2021/08/08 03:14:14;;;;;;;35.17;9.48;;;13.90;99.90;;;;;;5074919;28;20133;-77
2021/08/08 03:16:41;;;;;;;38.72;9.25;;;13.80;99.90;;;;;;5074987;28;20028;-78
2021/08/08 03:19:07;;;;;;;32.92;9.00;;;13.90;99.90;;;;;;5074728;28;20035;-78
2021/08/08 03:21:32;;;;;;;31.77;8.85;;;13.90;99.90;;;;;;5074725;28;20020;-77
2021/08/08 03:23:58;;;;;;;27.33;9.00;;;13.80;99.90;;;;;;5074591;28;20481;-78
2021/08/08 03:26:24;;;;;;;30.05;8.75;;;13.80;99.90;;;;;;5074510;28;20024;-76
2021/08/08 03:28:49;;;;;;;40.00;9.77;;;13.90;99.90;;;;;;5075048;28;20059;-78
2021/08/08 03:31:17;;;;;;;29.77;9.00;;;13.80;99.90;;;;;;5074729;28;20384;-77
2021/08/08 03:33:43;;;;;;;35.67;9.07;;;13.80;99.90;;;;;;5074419;28;20063;-77
2021/08/08 03:36:11;;;;;;;31.10;9.10;;;13.90;99.90;;;;;;5074483;28;20421;-79
2021/08/08 03:38:37;;;;;;;34.80;8.60;;;13.80;99.90;;;;;;5074420;28;20024;-78
2021/08/08 03:41:03;;;;;;;;;;;13.80;99.90;;;;;;5074737;28;20020;-78
2021/08/08 03:43:28;;;;;;;26.48;8.55;;;13.70;99.90;;;;;;5070374;28;19966;-78
2021/08/08 03:45:54;;;;;;;33.50;8.82;;;13.70;99.90;;;;;;5054304;28;20021;-77
2021/08/08 03:48:20;;;;;;;32.58;8.88;;;13.80;99.90;;;;;;5054198;28;20424;-78
2021/08/08 03:50:46;;;;;;;31.48;9.20;;;13.80;99.90;;;;;;5054106;28;20039;-78
2021/08/08 03:53:11;;;;;;;32.88;8.90;;;13.80;99.90;;;;;;5054130;28;20082;-77
2021/08/08 03:55:37;;;;;;;40.60;10.50;;;13.80;99.90;;;;;;5054078;28;20029;-78
2021/08/08 03:58:03;;;;;;;32.33;8.95;;;13.70;99.90;;;;;;5054303;28;20114;-77
2021/08/08 04:00:29;;;;;;;28.23;9.02;;;13.80;99.90;;;;;;5053938;28;20032;-77
2021/08/08 04:02:54;;;;;;;40.22;10.73;;;13.80;99.90;;;;;;5053881;28;20566;-77
2021/08/08 04:05:20;;;;;;;31.42;9.65;;;13.80;99.90;;;;;;5053831;28;20029;-77
2021/08/08 04:07:46;;;;;;;37.13;9.23;;;13.70;99.90;;;;;;5053982;28;20092;-77
2021/08/08 04:10:12;;;;;;;33.65;9.00;;;13.50;99.90;;;;;;5053740;28;20024;-79
2021/08/08 04:12:38;;;;;;;36.58;9.48;;;13.70;99.90;;;;;;5053697;28;20025;-79
2021/08/08 04:15:05;;;;;;;28.70;9.05;;;13.60;99.90;;;;;;5035742;28;20082;-77
2021/08/08 04:17:31;;;;;;;34.17;9.18;;;13.60;99.90;;;;;;5053581;28;20029;-77
2021/08/08 04:19:57;;;;;;;32.47;9.70;;;13.60;99.90;;;;;;5053631;28;20025;-78
2021/08/08 04:22:23;;;;;;;32.60;8.43;;;13.60;99.90;;;;;;5053814;28;20028;-76
2021/08/08 04:24:48;;;;;;;30.83;8.55;;;13.60;99.90;;;;;;5053426;28;20107;-79
2021/08/08 04:27:14;;;;;;;29.08;10.07;;;13.60;99.90;;;;;;5053558;28;20533;-78
2021/08/08 04:29:41;;;;;;;42.80;9.55;;;13.50;99.90;;;;;;5053477;28;20049;-77
2021/08/08 04:32:08;;;;;;;43.47;9.10;;;13.50;99.90;;;;;;5053402;28;20389;-79
2021/08/08 04:34:34;;;;;;;33.80;9.45;;;13.30;99.90;;;;;;5053557;28;20028;-76
2021/08/08 04:37:01;;;;;;;27.27;9.63;;;13.30;99.90;;;;;;5053560;28;20029;-76
2021/08/08 04:39:27;;;;;;;34.05;10.10;;;13.40;99.90;;;;;;5053295;28;20029;-77
2021/08/08 04:41:53;;;;;;;32.00;9.23;;;13.50;99.90;;;;;;5035410;28;20025;-79
2021/08/08 04:44:22;;;;;;;33.10;9.65;;;13.50;99.90;;;;;;5053231;28;20459;-76
2021/08/08 04:46:48;;;;;;;38.28;10.23;;;13.40;99.90;;;;;;5073271;28;20056;-78
2021/08/08 04:49:14;;;;;;;;;;;13.50;99.90;;;;;;5073679;28;20056;-77
2021/08/08 04:51:41;;;;;;;26.52;8.90;;;13.50;99.90;;;;;;5073041;28;20280;-77
2021/08/08 04:54:08;;;;;;;32.83;9.23;;;13.40;99.90;;;;;;5073348;28;20093;-78
2021/08/08 04:56:34;;;;;;;39.55;10.95;;;13.40;99.90;;;;;;5073203;28;20031;-77
2021/08/08 04:59:00;;;;;;;29.90;8.63;;;13.30;99.90;;;;;;5073152;28;20029;-78
2021/08/08 05:01:25;;;;;;;38.15;10.23;;;13.30;99.90;;;;;;5073163;28;20039;-76
2021/08/08 05:03:51;;;;;;;30.15;9.35;;;13.30;99.90;;;;;;5073087;28;20017;-78
2021/08/08 05:06:17;;;;;;;32.80;9.45;;;13.30;99.90;;;;;;5073089;28;20033;-78
2021/08/08 05:08:43;;;;;;;29.10;9.27;;;13.30;99.90;;;;;;5073342;28;20362;-78
2021/08/08 05:11:08;;;;;;;29.45;9.00;;;13.40;99.90;;;;;;5073081;28;20029;-78
2021/08/08 05:13:34;;;;;;;33.70;10.38;;;13.30;99.90;;;;;;5072985;28;20017;-78
2021/08/08 05:16:00;;;;;;;29.15;8.82;;;13.30;99.90;;;;;;5072988;28;20033;-78
2021/08/08 05:18:26;;;;;;;33.00;9.20;;;13.30;99.90;;;;;;5073272;28;20028;-77
2021/08/08 05:20:52;;;;;;;37.60;9.32;;;13.40;99.90;;;;;;5072966;28;20481;-78
2021/08/08 05:23:17;;;;;;;27.60;8.52;;;13.30;99.90;;;;;;5072830;28;20096;-78
2021/08/08 05:25:43;;;;;;;30.85;9.57;;;13.50;99.90;;;;;;5073092;28;20472;-77
2021/08/08 05:28:09;;;;;;;30.30;9.07;;;13.50;99.90;;;;;;5073263;28;20078;-78
2021/08/08 05:30:34;;;;;;;27.80;8.93;;;13.40;99.90;;;;;;5072997;28;20055;-76
2021/08/08 05:33:00;;;;;;;29.27;9.10;;;13.50;99.90;;;;;;5072883;28;20088;-78
2021/08/08 05:35:26;;;;;;;28.48;8.80;;;13.50;99.90;;;;;;5072879;28;20115;-78
2021/08/08 05:37:52;;;;;;;31.05;8.32;;;13.50;99.90;;;;;;5072783;28;20020;-77
2021/08/08 05:40:17;;;;;;;24.83;8.95;;;13.60;99.90;;;;;;5072959;28;20078;-76
2021/08/08 05:42:48;;;;;;;28.88;8.77;;;13.60;99.90;;;;;;5072770;28;20481;-78
2021/08/08 05:45:14;;;;;;;34.70;8.35;;;13.80;99.90;;;;;;5053929;28;20045;-78
2021/08/08 05:47:40;;;;;;;;;;;13.80;99.90;;;;;;5053039;28;20025;-77
2021/08/08 05:50:06;;;;;;;26.05;8.35;;;13.80;99.90;;;;;;5052649;28;19987;-76
2021/08/08 05:52:31;;;;;;;30.15;9.00;;;13.80;99.90;;;;;;5052773;28;20058;-78
2021/08/08 05:55:00;;;;;;;31.25;9.70;;;13.80;99.90;;;;;;5052584;28;20025;-77
2021/08/08 05:57:26;;;;;;;50.90;23.73;;;13.80;99.90;;;;;;5052526;28;20017;-76
2021/08/08 05:59:52;;;;;;;32.92;9.27;;;13.90;99.90;;;;;;5052512;28;20025;-77
2021/08/08 06:02:18;;;;;;;31.88;8.68;;;13.90;99.90;;;;;;5052699;28;20052;-78
2021/08/08 06:04:48;;;;;;;24.08;8.10;;;14.00;99.90;;;;;;5053731;28;20017;-77
2021/08/08 06:07:14;;;;;;;33.40;8.73;;;14.10;99.90;;;;;;5056299;28;20035;-79
2021/08/08 06:09:39;;;;;;;25.40;8.20;;;14.20;99.90;;;;;;5056107;28;20108;-77
2021/08/08 06:12:07;;;;;;;26.55;8.23;;;14.30;99.90;;;;;;5056075;28;20541;-77
2021/08/08 06:14:33;;;;;;;30.45;8.30;;;14.30;99.90;;;;;;5056055;28;20016;-76
2021/08/08 06:16:59;;;;;;;27.92;9.45;;;14.40;99.90;;;;;;5055928;28;20035;-78
2021/08/08 06:19:25;;;;;;;25.60;8.32;;;14.50;99.90;;;;;;5055964;28;20013;-77
2021/08/08 06:21:51;;;;;;;;;;;14.50;99.90;;;;;;5056262;28;20040;-77
2021/08/08 06:24:17;;;;;;;22.75;7.60;;;14.50;99.90;;;;;;5055759;28;19905;-78
2021/08/08 06:26:43;;;;;;;35.20;13.85;;;14.70;99.90;;;;;;5055885;28;20029;-78
2021/08/08 06:29:09;;;;;;;24.27;8.02;;;14.70;99.90;;;;;;5055768;28;20036;-76
2021/08/08 06:31:36;;;;;;;29.90;8.77;;;14.60;99.90;;;;;;5055656;28;20017;-78
2021/08/08 06:34:02;;;;;;;21.42;7.53;;;14.80;99.90;;;;;;5055661;28;20029;-79
2021/08/08 06:36:28;;;;;;;21.40;8.35;;;14.90;99.90;;;;;;5037711;28;20017;-78
2021/08/08 06:38:57;;;;;;;27.20;8.68;;;15.00;99.90;;;;;;5055739;28;20097;-77
2021/08/08 06:41:23;;;;;;;23.67;7.78;;;15.10;99.90;;;;;;5055480;28;20028;-77
2021/08/08 06:43:49;;;;;;;;;;;15.20;99.90;;;;;;5055893;28;20056;-80
2021/08/08 06:46:15;;;;;;;88.18;44.65;;;15.20;99.90;;;;;;5055372;28;19913;-78
2021/08/08 06:48:40;;;;;;;27.45;7.40;;;15.20;99.90;;;;;;5055769;28;20017;-78
2021/08/08 06:51:06;;;;;;;27.80;8.02;;;15.20;99.90;;;;;;5055342;28;20103;-77
2021/08/08 06:53:32;;;;;;;39.30;16.88;;;15.40;99.90;;;;;;5055311;28;20009;-77
2021/08/08 06:55:59;;;;;;;;;;;15.30;99.90;;;;;;5055685;28;20040;-77
2021/08/08 06:58:24;;;;;;;23.90;11.23;;;15.40;99.90;;;;;;5037368;28;19905;-78
2021/08/08 07:00:50;;;;;;;;;;;15.30;99.90;;;;;;5055567;28;20446;-79
2021/08/08 07:03:16;;;;;;;23.90;7.10;;;15.40;99.90;;;;;;5055136;28;20003;-78
2021/08/08 07:05:42;;;;;;;;;;;15.60;99.90;;;;;;5055460;28;20082;-77
2021/08/08 07:08:09;;;;;;;30.95;14.50;;;15.80;99.90;;;;;;5054948;28;19916;-78
2021/08/08 07:10:34;;;;;;;26.13;9.05;;;16.20;99.90;;;;;;5037039;28;20025;-79
2021/08/08 07:13:00;;;;;;;22.10;7.40;;;16.50;99.90;;;;;;5054915;28;20513;-78
2021/08/08 07:15:26;;;;;;;52.92;32.53;;;17.30;99.90;;;;;;5054538;28;20029;-78
2021/08/08 07:17:52;;;;;;;130.23;88.95;;;17.90;99.90;;;;;;5054776;28;20389;-80
2021/08/08 07:20:17;;;;;;;117.57;86.28;;;17.80;99.90;;;;;;5054838;28;20048;-79
2021/08/08 07:22:43;;;;;;;22.77;9.55;;;18.00;99.90;;;;;;5054725;28;20017;-78
2021/08/08 07:25:09;;;;;;;24.10;8.65;;;17.50;99.90;;;;;;5054536;28;20056;-77
2021/08/08 07:27:35;;;;;;;30.58;19.83;;;18.50;99.90;;;;;;5054651;28;20501;-79
2021/08/08 07:30:01;;;;;;;22.88;11.13;;;18.80;99.90;;;;;;5054652;28;20104;-78
2021/08/08 07:32:26;;;;;;;22.55;12.40;;;18.90;99.90;;;;;;5054557;28;20083;-79
2021/08/08 07:34:52;;;;;;;82.45;63.03;;;19.10;99.90;;;;;;5054611;28;20021;-79
2021/08/08 07:37:19;;;;;;;82.00;60.65;;;18.40;99.90;;;;;;5054438;28;20013;-78
2021/08/08 07:39:45;;;;;;;27.55;15.68;;;18.40;99.90;;;;;;5036491;28;20028;-78
2021/08/08 07:42:10;;;;;;;99.43;71.25;;;18.60;99.90;;;;;;5054262;28;20481;-78
2021/08/08 07:44:37;;;;;;;52.30;38.50;;;18.60;99.90;;;;;;5054062;28;20391;-80
2021/08/08 07:47:03;;;;;;;50.67;27.70;;;18.50;99.90;;;;;;5054313;28;20025;-76
2021/08/08 07:49:28;;;;;;;60.30;37.50;;;18.50;99.90;;;;;;5054402;28;20029;-79
2021/08/08 07:51:54;;;;;;;28.55;19.40;;;18.30;99.90;;;;;;5054150;28;20024;-79
2021/08/08 07:54:21;;;;;;;163.15;103.55;;;18.60;99.90;;;;;;5054587;28;20025;-77
2021/08/08 07:56:47;;;;;;;122.40;62.45;;;18.60;99.90;;;;;;5054038;28;20028;-78
2021/08/08 07:59:12;;;;;;;319.77;201.23;;;18.90;99.90;;;;;;5054143;28;20025;-78
2021/08/08 08:01:39;;;;;;;30.55;13.63;;;18.80;99.90;;;;;;5036119;28;20051;-80
2021/08/08 08:04:05;;;;;;;71.00;49.67;;;18.90;99.90;;;;;;5053953;28;20025;-79
2021/08/08 08:06:30;;;;;;;172.98;105.55;;;18.90;99.90;;;;;;5054057;28;20044;-78
2021/08/08 08:08:56;;;;;;;34.30;21.30;;;18.30;99.90;;;;;;5054226;28;20047;-78
2021/08/08 08:11:22;;;;;;;53.38;34.63;;;18.40;99.90;;;;;;5053888;28;20104;-79
2021/08/08 08:13:47;;;;;;;57.40;39.25;;;18.50;99.90;;;;;;5053752;28;20549;-78
2021/08/08 08:16:13;;;;;;;31.15;12.45;;;18.90;99.90;;;;;;5053643;28;20021;-78
2021/08/08 08:18:39;;;;;;;54.08;30.75;;;19.30;99.90;;;;;;5053655;28;20033;-78
2021/08/08 08:21:05;;;;;;;58.50;31.05;;;19.60;99.90;;;;;;5053602;28;20024;-77
2021/08/08 08:23:30;;;;;;;39.25;24.15;;;19.60;99.90;;;;;;5053610;28;20078;-79
2021/08/08 08:25:56;;;;;;;23.63;9.85;;;19.90;99.90;;;;;;5053492;28;20032;-77
2021/08/08 08:28:26;;;;;;;57.75;28.95;;;20.10;99.90;;;;;;5052800;28;20032;-78
2021/08/08 08:30:52;;;;;;;261.70;167.02;;;20.10;99.90;;;;;;5053473;28;20013;-79
2021/08/08 08:33:18;;;;;;;40.92;25.20;;;19.30;99.90;;;;;;5053472;28;20032;-78
2021/08/08 08:35:43;;;;;;;404.80;242.80;;;19.20;99.90;;;;;;5053378;28;20112;-78
2021/08/08 08:38:09;;;;;;;40.17;24.75;;;19.10;99.90;;;;;;5053266;28;20036;-80
2021/08/08 08:40:36;;;;;;;206.88;118.05;;;19.60;99.90;;;;;;5053557;28;20037;-77
2021/08/08 08:43:05;;;;;;;147.88;100.10;;;19.10;99.90;;;;;;5053009;28;20033;-78
2021/08/08 08:45:32;;;;;;;24.70;15.00;;;19.20;99.90;;;;;;5053359;28;20021;-79
2021/08/08 08:48:00;;;;;;;32.67;22.13;;;20.30;99.90;;;;;;5053118;28;20045;-78
2021/08/08 08:50:27;;;;;;;79.35;47.08;;;19.90;99.90;;;;;;5053192;28;20056;-77
2021/08/08 08:52:53;;;;;;;19.90;8.88;;;19.60;99.90;;;;;;5053438;28;20021;-77
2021/08/08 08:55:19;;;;;;;96.25;67.72;;;19.50;99.90;;;;;;5053205;28;20539;-79
2021/08/08 08:57:45;;;;;;;359.90;227.13;;;19.20;99.90;;;;;;5053061;28;20029;-78
2021/08/08 09:00:12;;;;;;;66.93;45.75;;;18.60;99.90;;;;;;5053014;28;20526;-77
2021/08/08 09:02:38;;;;;;;271.45;172.00;;;18.80;99.90;;;;;;5053057;28;20032;-78
2021/08/08 09:05:04;;;;;;;35.67;24.52;;;18.90;99.90;;;;;;5052933;28;20486;-77
2021/08/08 09:07:30;;;;;;;62.97;46.00;;;19.00;99.90;;;;;;5053021;28;20048;-76
2021/08/08 09:09:57;;;;;;;166.27;106.72;;;18.80;99.90;;;;;;5053015;28;20474;-78
2021/08/08 09:12:24;;;;;;;20.70;10.55;;;19.20;99.90;;;;;;5053079;28;20429;-79
2021/08/08 09:15:01;;;;;;;72.15;40.10;;;19.80;99.90;;;;;;5052974;28;20017;-79
2021/08/08 09:17:28;;;;;;;55.58;33.08;;;20.00;99.90;;;;;;5053368;28;20047;-78
2021/08/08 09:19:59;;;;;;;39.80;24.50;;;19.40;99.90;;;;;;5052967;28;20476;-79
2021/08/08 09:22:27;;;;;;;94.00;63.17;;;19.10;99.90;;;;;;5053035;28;20013;-78
2021/08/08 09:24:53;;;;;;;61.67;43.55;;;18.80;99.90;;;;;;5052777;28;20025;-79
2021/08/08 09:27:18;;;;;;;15.45;6.70;;;19.40;99.90;;;;;;5052825;28;20027;-78
2021/08/08 09:29:48;;;;;;;67.22;33.28;;;19.80;99.90;;;;;;5052847;28;20025;-78
2021/08/08 09:32:14;;;;;;;17.15;7.57;;;19.50;99.90;;;;;;5053120;28;20017;-77
2021/08/08 09:34:46;;;;;;;34.78;19.92;;;19.80;99.90;;;;;;5052768;28;20077;-78
2021/08/08 09:37:22;;;;;;;30.70;18.13;;;20.80;99.90;;;;;;5052975;28;20098;-77
2021/08/08 09:39:53;;;;;;;16.67;9.82;;;20.60;99.90;;;;;;5055908;28;20469;-78
2021/08/08 09:42:26;;;;;;;15.57;6.38;;;20.40;99.90;;;;;;5056739;28;20049;-78
2021/08/08 09:44:59;;;;;;;26.55;20.80;;;20.80;99.90;;;;;;5065207;28;20052;-78
2021/08/08 09:47:41;;;;;;;104.20;66.72;;;21.10;99.90;;;;;;5076788;28;20039;-80
2021/08/08 09:50:20;;;;;;;137.88;96.28;;;21.30;99.90;;;;;;5075155;28;20439;-79
2021/08/08 09:53:00;;;;;;;51.22;39.95;;;22.50;99.40;;;;;;5076550;28;20020;-78
2021/08/08 09:55:34;;;;;;;35.38;26.30;;;22.30;99.50;;;;;;5076706;28;20548;-79
2021/08/08 09:58:01;;;;;;;53.10;29.92;;;20.40;99.90;;;;;;5076585;28;20024;-78
2021/08/08 10:00:33;;;;;;;41.55;26.42;;;19.90;99.90;;;;;;5076470;28;20021;-79
2021/08/08 10:03:00;;;;;;;16.08;7.53;;;19.90;99.90;;;;;;5076268;28;20056;-79
2021/08/08 10:05:28;;;;;;;16.98;7.88;;;20.30;99.90;;;;;;5075527;28;20024;-78
2021/08/08 10:07:54;;;;;;;132.85;100.55;;;20.20;99.90;;;;;;5076192;28;20048;-80
2021/08/08 10:10:21;;;;;;;28.27;23.80;;;23.30;97.90;;;;;;5076168;28;20033;-79
2021/08/08 10:13:20;;;;;;;96.60;82.13;;;22.90;96.70;;;;;;5076270;28;20017;-78
2021/08/08 10:15:49;;;;;;;19.30;16.50;;;22.30;98.80;;;;;;5076146;28;20016;-79
2021/08/08 10:18:16;;;;;;;41.75;36.67;;;25.10;93.30;;;;;;5075988;28;20025;-79
2021/08/08 10:20:44;;;;;;;72.22;65.80;;;28.10;84.90;;;;;;5076269;28;20027;-81
2021/08/08 10:23:17;;;;;;;27.10;24.42;;;28.40;78.50;;;;;;5075892;28;20024;-80
2021/08/08 10:25:48;;;;;;;18.08;15.38;;;28.20;70.70;;;;;;5075811;28;20501;-80
2021/08/08 10:28:14;;;;;;;12.15;9.55;;;29.50;69.60;;;;;;5075856;28;20044;-80
2021/08/08 10:30:41;;;;;;;59.20;53.30;;;26.90;71.60;;;;;;5075806;28;20024;-80
2021/08/08 10:33:08;;;;;;;117.28;105.43;;;28.30;67.20;;;;;;5074460;28;20025;-80
2021/08/08 10:35:52;;;;;;;47.33;42.88;;;28.80;61.60;;;;;;5075664;28;20020;-80
2021/08/08 10:38:18;;;;;;;59.17;53.17;;;29.70;65.20;;;;;;5075896;28;20027;-81
2021/08/08 10:40:46;;;;;;;31.85;28.98;;;30.20;62.00;;;;;;5074336;28;20025;-80
2021/08/08 10:43:24;;;;;;;55.55;50.90;;;30.40;64.40;;;;;;5073972;28;20023;-80
2021/08/08 10:46:01;;;;;;;43.95;39.92;;;31.10;62.10;;;;;;5055855;28;20041;-80
2021/08/08 10:48:35;;;;;;;44.67;40.38;;;30.80;60.60;;;;;;5055590;28;20440;-79
2021/08/08 10:51:01;;;;;;;137.25;123.55;;;31.90;56.80;;;;;;5054682;28;20032;-80
2021/08/08 10:53:28;;;;;;;168.25;146.50;;;27.80;60.90;;;;;;5037424;28;20035;-79
2021/08/08 10:56:07;;;;;;;12.80;6.25;;;25.00;72.80;;;;;;5055142;28;20027;-78
2021/08/08 10:58:38;;;;;;;13.30;7.40;;;24.30;80.80;;;;;;5055300;28;20020;-77
2021/08/08 11:01:21;;;;;;;13.90;9.38;;;25.20;80.00;;;;;;5037236;28;20028;-79
2021/08/08 11:03:59;;;;;;;14.38;9.88;;;24.00;80.20;;;;;;5055323;28;20017;-78
2021/08/08 11:06:26;;;;;;;15.77;9.70;;;22.60;83.80;;;;;;5055418;28;20108;-78
2021/08/08 11:08:54;;;;;;;20.08;14.35;;;21.50;97.40;;;;;;5054998;28;20025;-78
2021/08/08 11:11:28;;;;;;;16.05;8.80;;;21.40;99.90;;;;;;5054963;28;20110;-78
2021/08/08 11:14:05;;;;;;;21.35;14.20;;;21.30;99.90;;;;;;5037006;28;20108;-78
2021/08/08 11:16:31;;;;;;;25.23;16.40;;;21.70;99.90;;;;;;5036721;28;20037;-79
2021/08/08 11:18:57;;;;;;;30.75;22.52;;;22.30;98.00;;;;;;5054909;28;20100;-79
2021/08/08 11:21:25;;;;;;;22.15;19.98;;;24.80;93.60;;;;;;5054863;28;20049;-79
2021/08/08 11:23:57;;;;;;;45.58;41.50;;;26.30;88.50;;;;;;5055053;28;20059;-78
2021/08/08 11:26:23;;;;;;;13.27;10.88;;;25.70;76.80;;;;;;5054680;28;20190;-80
2021/08/08 11:29:05;;;;;;;87.43;79.28;;;28.90;75.40;;;;;;5036758;28;20021;-82
2021/08/08 11:31:34;;;;;;;15.90;14.25;;;28.90;62.10;;;;;;5054580;28;20033;-80
2021/08/08 11:34:01;;;;;;;85.82;77.00;;;31.00;60.20;;;;;;5054761;28;20473;-82
2021/08/08 11:36:35;;;;;;;129.95;107.00;;;31.40;55.40;;;;;;5036616;28;20120;-81
2021/08/08 11:39:05;;;;;;;92.80;83.30;;;31.00;53.20;;;;;;5054417;28;20032;-79
2021/08/08 11:41:31;;;;;;;28.83;25.98;;;30.40;53.40;;;;;;5054354;28;20040;-80
2021/08/08 11:44:09;;;;;;;47.10;42.10;;;32.20;51.70;;;;;;5054294;28;20037;-80
2021/08/08 11:46:38;;;;;;;88.13;79.60;;;32.10;50.40;;;;;;5054473;28;20029;-79
2021/08/08 11:49:19;;;;;;;58.03;52.78;;;30.20;51.70;;;;;;5054277;28;20067;-79
2021/08/08 11:52:01;;;;;;;267.80;200.07;;;25.40;60.80;;;;;;5054360;28;20029;-79
2021/08/08 11:54:32;;;;;;;222.15;140.10;;;23.40;83.90;;;;;;5054324;28;20025;-77
2021/08/08 11:56:59;;;;;;;45.10;26.90;;;18.40;99.90;;;;;;5054598;28;20052;-78
2021/08/08 11:59:29;;;;;;;40.97;21.77;;;18.10;99.90;;;;;;5054132;28;20017;-78
2021/08/08 12:02:00;;;;;;;14.32;8.63;;;19.40;99.90;;;;;;5053748;28;20013;-78
2021/08/08 12:04:26;;;;;;;17.58;15.70;;;20.60;99.90;;;;;;5054083;28;20071;-79
2021/08/08 12:06:53;;;;;;;24.13;21.88;;;24.40;99.90;;;;;;5053900;28;20468;-80
2021/08/08 12:09:21;;;;;;;36.38;32.95;;;26.30;99.90;;;;;;5053893;28;20025;-79
2021/08/08 12:11:54;;;;;;;50.45;45.63;;;25.50;99.90;;;;;;5035991;28;20025;-81
2021/08/08 12:14:40;;;;;;;35.47;32.15;;;27.80;97.00;;;;;;5054021;28;20029;-81
2021/08/08 12:17:13;;;;;;;29.52;26.80;;;28.50;86.10;;;;;;5035604;28;20036;-79
2021/08/08 12:19:41;;;;;;;21.23;18.98;;;25.20;93.40;;;;;;5053718;28;20033;-79
2021/08/08 12:22:09;;;;;;;15.80;9.25;;;25.50;92.00;;;;;;5053849;28;20449;-79
2021/08/08 12:24:39;;;;;;;56.95;51.30;;;25.30;92.80;;;;;;5053559;28;20048;-79
2021/08/08 12:27:07;;;;;;;49.53;44.63;;;25.10;90.80;;;;;;5054152;28;20028;-80
2021/08/08 12:29:35;;;;;;;92.45;82.25;;;28.40;76.30;;;;;;5053475;28;20053;-79
2021/08/08 12:32:19;;;;;;;25.90;22.42;;;28.90;66.90;;;;;;5053833;28;20115;-80
2021/08/08 12:34:46;;;;;;;63.75;54.10;;;28.10;70.40;;;;;;5035322;28;20056;-78
2021/08/08 12:37:13;;;;;;;13.82;10.63;;;27.50;70.40;;;;;;5053367;28;20029;-80